sensor_id;sensor_type;location;lat;lon;timestamp;temperature;humidity
13642;DHT22;6894;52.196;9.904;2023-04-09T00:01:12;3.60;99.90
13642;DHT22;6894;52.196;9.904;2023-04-09T00:03:39;3.50;99.90
13642;DHT22;6894;52.196;9.904;2023-04-09T00:06:06;3.50;99.90
13642;DHT22;6894;52.196;9.904;2023-04-09T00:08:33;3.40;99.90
13642;DHT22;6894;52.196;9.904;2023-04-09T00:11:00;3.30;99.90
13642;DHT22;6894;52.196;9.904;2023-04-09T00:13:28;3.20;99.90
13642;DHT22;6894;52.196;9.904;2023-04-09T00:15:54;3.20;99.90
13642;DHT22;6894;52.196;9.904;2023-04-09T00:18:21;3.20;99.90
13642;DHT22;6894;52.196;9.904;2023-04-09T00:20:48;3.10;99.90
13642;DHT22;6894;52.196;9.904;2023-04-09T00:23:15;3.10;99.90
13642;DHT22;6894;52.196;9.904;2023-04-09T00:25:41;3.00;99.90
13642;DHT22;6894;52.196;9.904;2023-04-09T00:28:08;3.10;99.90
13642;DHT22;6894;52.196;9.904;2023-04-09T00:30:36;3.00;99.90
13642;DHT22;6894;52.196;9.904;2023-04-09T00:33:03;3.00;99.90
13642;DHT22;6894;52.196;9.904;2023-04-09T00:35:30;3.00;99.90
13642;DHT22;6894;52.196;9.904;2023-04-09T00:37:56;3.00;99.90
13642;DHT22;6894;52.196;9.904;2023-04-09T00:40:23;2.90;99.90
13642;DHT22;6894;52.196;9.904;2023-04-09T00:42:50;3.00;99.90
13642;DHT22;6894;52.196;9.904;2023-04-09T00:45:17;3.00;99.90
13642;DHT22;6894;52.196;9.904;2023-04-09T00:47:45;3.00;99.90
13642;DHT22;6894;52.196;9.904;2023-04-09T00:50:12;3.10;99.90
13642;DHT22;6894;52.196;9.904;2023-04-09T00:52:39;3.00;99.90
13642;DHT22;6894;52.196;9.904;2023-04-09T00:55:07;3.10;99.90
13642;DHT22;6894;52.196;9.904;2023-04-09T00:57:35;3.00;99.90
13642;DHT22;6894;52.196;9.904;2023-04-09T01:00:02;3.00;99.90
13642;DHT22;6894;52.196;9.904;2023-04-09T01:02:31;3.10;99.90
13642;DHT22;6894;52.196;9.904;2023-04-09T01:04:59;3.00;99.90
13642;DHT22;6894;52.196;9.904;2023-04-09T01:07:35;3.10;99.90
13642;DHT22;6894;52.196;9.904;2023-04-09T01:10:15;3.10;99.90
13642;DHT22;6894;52.196;9.904;2023-04-09T01:12:49;3.10;99.90
13642;DHT22;6894;52.196;9.904;2023-04-09T01:15:24;3.10;99.90
13642;DHT22;6894;52.196;9.904;2023-04-09T01:17:55;3.10;99.90
13642;DHT22;6894;52.196;9.904;2023-04-09T01:20:31;3.10;99.90
13642;DHT22;6894;52.196;9.904;2023-04-09T01:23:06;3.10;99.90
13642;DHT22;6894;52.196;9.904;2023-04-09T01:25:46;3.00;99.90
13642;DHT22;6894;52.196;9.904;2023-04-09T01:28:22;3.00;99.90
13642;DHT22;6894;52.196;9.904;2023-04-09T01:30:52;2.90;99.90
13642;DHT22;6894;52.196;9.904;2023-04-09T01:33:21;3.00;99.90
13642;DHT22;6894;52.196;9.904;2023-04-09T01:35:48;3.00;99.90
13642;DHT22;6894;52.196;9.904;2023-04-09T01:38:17;3.00;99.90
13642;DHT22;6894;52.196;9.904;2023-04-09T01:40:44;3.00;99.90
13642;DHT22;6894;52.196;9.904;2023-04-09T01:43:12;3.00;99.90
13642;DHT22;6894;52.196;9.904;2023-04-09T01:45:40;3.10;99.90
13642;DHT22;6894;52.196;9.904;2023-04-09T01:48:08;3.10;99.90
13642;DHT22;6894;52.196;9.904;2023-04-09T01:50:35;3.10;99.90
13642;DHT22;6894;52.196;9.904;2023-04-09T01:53:02;3.00;99.90
13642;DHT22;6894;52.196;9.904;2023-04-09T01:55:29;3.10;99.90
13642;DHT22;6894;52.196;9.904;2023-04-09T01:57:56;3.10;99.90
13642;DHT22;6894;52.196;9.904;2023-04-09T02:00:23;3.10;99.90
13642;DHT22;6894;52.196;9.904;2023-04-09T02:02:56;3.00;99.90
13642;DHT22;6894;52.196;9.904;2023-04-09T02:05:25;3.10;99.90
13642;DHT22;6894;52.196;9.904;2023-04-09T02:07:55;3.10;99.90
13642;DHT22;6894;52.196;9.904;2023-04-09T02:10:26;3.00;99.90
13642;DHT22;6894;52.196;9.904;2023-04-09T02:12:57;3.00;99.90
13642;DHT22;6894;52.196;9.904;2023-04-09T02:15:27;2.90;99.90
13642;DHT22;6894;52.196;9.904;2023-04-09T02:17:57;2.80;99.90
13642;DHT22;6894;52.196;9.904;2023-04-09T02:20:24;2.80;99.90
13642;DHT22;6894;52.196;9.904;2023-04-09T02:22:51;2.80;99.90
13642;DHT22;6894;52.196;9.904;2023-04-09T02:25:18;2.80;99.90
13642;DHT22;6894;52.196;9.904;2023-04-09T02:27:45;2.80;99.90
13642;DHT22;6894;52.196;9.904;2023-04-09T02:30:11;2.70;99.90
13642;DHT22;6894;52.196;9.904;2023-04-09T02:32:38;2.70;99.90
13642;DHT22;6894;52.196;9.904;2023-04-09T02:35:07;2.70;99.90
13642;DHT22;6894;52.196;9.904;2023-04-09T02:37:33;2.50;99.90
13642;DHT22;6894;52.196;9.904;2023-04-09T02:40:00;2.50;99.90
13642;DHT22;6894;52.196;9.904;2023-04-09T02:42:28;2.40;99.90
13642;DHT22;6894;52.196;9.904;2023-04-09T02:44:55;2.40;99.90
13642;DHT22;6894;52.196;9.904;2023-04-09T02:47:22;2.40;99.90
13642;DHT22;6894;52.196;9.904;2023-04-09T02:49:51;2.30;99.90
13642;DHT22;6894;52.196;9.904;2023-04-09T02:52:19;2.30;99.90
13642;DHT22;6894;52.196;9.904;2023-04-09T02:54:48;2.40;99.90
13642;DHT22;6894;52.196;9.904;2023-04-09T02:57:15;2.30;99.90
13642;DHT22;6894;52.196;9.904;2023-04-09T02:59:42;2.40;99.90
13642;DHT22;6894;52.196;9.904;2023-04-09T03:02:09;2.40;99.90
13642;DHT22;6894;52.196;9.904;2023-04-09T03:04:35;2.20;99.90
13642;DHT22;6894;52.196;9.904;2023-04-09T03:07:02;2.30;99.90
13642;DHT22;6894;52.196;9.904;2023-04-09T03:09:30;2.30;99.90
13642;DHT22;6894;52.196;9.904;2023-04-09T03:11:57;2.20;99.90
13642;DHT22;6894;52.196;9.904;2023-04-09T03:14:24;2.20;99.90
13642;DHT22;6894;52.196;9.904;2023-04-09T03:16:50;3.00;99.90
13642;DHT22;6894;52.196;9.904;2023-04-09T03:19:17;2.10;99.90
13642;DHT22;6894;52.196;9.904;2023-04-09T03:21:44;2.10;99.90
13642;DHT22;6894;52.196;9.904;2023-04-09T03:24:13;2.30;99.90
13642;DHT22;6894;52.196;9.904;2023-04-09T03:26:41;2.10;99.90
13642;DHT22;6894;52.196;9.904;2023-04-09T03:29:08;2.10;99.90
13642;DHT22;6894;52.196;9.904;2023-04-09T03:31:35;2.00;99.90
13642;DHT22;6894;52.196;9.904;2023-04-09T03:34:02;2.00;99.90
13642;DHT22;6894;52.196;9.904;2023-04-09T03:36:28;2.00;99.90
13642;DHT22;6894;52.196;9.904;2023-04-09T03:38:55;2.00;99.90
13642;DHT22;6894;52.196;9.904;2023-04-09T03:41:22;1.90;99.90
13642;DHT22;6894;52.196;9.904;2023-04-09T03:43:50;1.80;99.90
13642;DHT22;6894;52.196;9.904;2023-04-09T03:46:17;1.80;99.90
13642;DHT22;6894;52.196;9.904;2023-04-09T03:48:44;1.80;99.90
13642;DHT22;6894;52.196;9.904;2023-04-09T03:51:11;1.80;99.90
13642;DHT22;6894;52.196;9.904;2023-04-09T03:53:38;2.00;99.90
13642;DHT22;6894;52.196;9.904;2023-04-09T03:56:05;2.00;99.90
13642;DHT22;6894;52.196;9.904;2023-04-09T03:58:32;2.00;99.90
13642;DHT22;6894;52.196;9.904;2023-04-09T04:01:00;2.00;99.90
13642;DHT22;6894;52.196;9.904;2023-04-09T04:03:27;2.00;99.90
13642;DHT22;6894;52.196;9.904;2023-04-09T04:05:59;1.90;99.90
13642;DHT22;6894;52.196;9.904;2023-04-09T04:08:25;2.00;99.90
13642;DHT22;6894;52.196;9.904;2023-04-09T04:10:52;2.10;99.90
13642;DHT22;6894;52.196;9.904;2023-04-09T04:13:19;2.00;99.90
13642;DHT22;6894;52.196;9.904;2023-04-09T04:15:46;2.00;99.90
13642;DHT22;6894;52.196;9.904;2023-04-09T04:18:14;2.00;99.90
13642;DHT22;6894;52.196;9.904;2023-04-09T04:20:40;2.00;99.90
13642;DHT22;6894;52.196;9.904;2023-04-09T04:23:07;2.10;99.90
13642;DHT22;6894;52.196;9.904;2023-04-09T04:25:34;2.10;99.90
13642;DHT22;6894;52.196;9.904;2023-04-09T04:28:01;2.10;99.90
13642;DHT22;6894;52.196;9.904;2023-04-09T04:30:27;2.10;99.90
13642;DHT22;6894;52.196;9.904;2023-04-09T04:32:54;2.10;99.90
13642;DHT22;6894;52.196;9.904;2023-04-09T04:35:22;2.20;99.90
13642;DHT22;6894;52.196;9.904;2023-04-09T04:37:49;2.10;99.90
13642;DHT22;6894;52.196;9.904;2023-04-09T04:40:16;2.20;99.90
13642;DHT22;6894;52.196;9.904;2023-04-09T04:42:43;2.20;99.90
13642;DHT22;6894;52.196;9.904;2023-04-09T04:45:10;2.30;99.90
13642;DHT22;6894;52.196;9.904;2023-04-09T04:47:37;2.20;99.90
13642;DHT22;6894;52.196;9.904;2023-04-09T04:50:05;2.10;99.90
13642;DHT22;6894;52.196;9.904;2023-04-09T04:52:33;2.20;99.90
13642;DHT22;6894;52.196;9.904;2023-04-09T04:55:00;2.10;99.90
13642;DHT22;6894;52.196;9.904;2023-04-09T04:57:26;2.20;99.90
13642;DHT22;6894;52.196;9.904;2023-04-09T04:59:53;2.10;99.90
13642;DHT22;6894;52.196;9.904;2023-04-09T05:02:20;2.10;99.90
13642;DHT22;6894;52.196;9.904;2023-04-09T05:04:47;2.20;99.90
13642;DHT22;6894;52.196;9.904;2023-04-09T05:07:13;2.10;99.90
13642;DHT22;6894;52.196;9.904;2023-04-09T05:09:41;2.20;99.90
13642;DHT22;6894;52.196;9.904;2023-04-09T05:12:08;2.10;99.90
13642;DHT22;6894;52.196;9.904;2023-04-09T05:14:35;2.10;99.90
13642;DHT22;6894;52.196;9.904;2023-04-09T05:17:02;2.00;99.90
13642;DHT22;6894;52.196;9.904;2023-04-09T05:19:29;2.10;99.90
13642;DHT22;6894;52.196;9.904;2023-04-09T05:21:56;2.10;99.90
13642;DHT22;6894;52.196;9.904;2023-04-09T05:24:22;2.10;99.90
13642;DHT22;6894;52.196;9.904;2023-04-09T05:26:50;2.10;99.90
13642;DHT22;6894;52.196;9.904;2023-04-09T05:29:17;2.00;99.90
13642;DHT22;6894;52.196;9.904;2023-04-09T05:31:44;2.00;99.90
13642;DHT22;6894;52.196;9.904;2023-04-09T05:34:11;1.90;99.90
13642;DHT22;6894;52.196;9.904;2023-04-09T05:36:37;1.90;99.90
13642;DHT22;6894;52.196;9.904;2023-04-09T05:39:04;1.90;99.90
13642;DHT22;6894;52.196;9.904;2023-04-09T05:41:31;2.00;99.90
13642;DHT22;6894;52.196;9.904;2023-04-09T05:43:59;1.90;99.90
13642;DHT22;6894;52.196;9.904;2023-04-09T05:46:26;1.90;99.90
13642;DHT22;6894;52.196;9.904;2023-04-09T05:48:53;1.90;99.90
13642;DHT22;6894;52.196;9.904;2023-04-09T05:51:20;1.90;99.90
13642;DHT22;6894;52.196;9.904;2023-04-09T05:53:47;1.90;99.90
13642;DHT22;6894;52.196;9.904;2023-04-09T05:56:14;2.00;99.90
13642;DHT22;6894;52.196;9.904;2023-04-09T05:58:42;2.00;99.90
13642;DHT22;6894;52.196;9.904;2023-04-09T06:01:10;2.00;99.90
13642;DHT22;6894;52.196;9.904;2023-04-09T06:03:37;2.00;99.90
13642;DHT22;6894;52.196;9.904;2023-04-09T06:06:03;2.10;99.90
13642;DHT22;6894;52.196;9.904;2023-04-09T06:08:30;2.10;99.90
13642;DHT22;6894;52.196;9.904;2023-04-09T06:10:57;2.20;99.90
13642;DHT22;6894;52.196;9.904;2023-04-09T06:13:24;2.20;99.90
13642;DHT22;6894;52.196;9.904;2023-04-09T06:15:51;2.30;99.90
13642;DHT22;6894;52.196;9.904;2023-04-09T06:18:19;2.30;99.90
13642;DHT22;6894;52.196;9.904;2023-04-09T06:20:46;2.30;99.90
13642;DHT22;6894;52.196;9.904;2023-04-09T06:23:13;2.40;99.90
13642;DHT22;6894;52.196;9.904;2023-04-09T06:25:40;2.50;99.90
13642;DHT22;6894;52.196;9.904;2023-04-09T06:28:06;2.50;99.90
13642;DHT22;6894;52.196;9.904;2023-04-09T06:30:33;2.60;99.90
13642;DHT22;6894;52.196;9.904;2023-04-09T06:33:01;2.60;99.90
13642;DHT22;6894;52.196;9.904;2023-04-09T06:35:29;2.60;99.90
13642;DHT22;6894;52.196;9.904;2023-04-09T06:37:56;2.70;99.90
13642;DHT22;6894;52.196;9.904;2023-04-09T06:40:23;2.80;99.90
13642;DHT22;6894;52.196;9.904;2023-04-09T06:42:49;2.80;99.90
13642;DHT22;6894;52.196;9.904;2023-04-09T06:45:16;2.90;99.90
13642;DHT22;6894;52.196;9.904;2023-04-09T06:47:43;3.00;99.90
13642;DHT22;6894;52.196;9.904;2023-04-09T06:50:10;3.10;99.90
13642;DHT22;6894;52.196;9.904;2023-04-09T06:52:38;3.20;99.90
13642;DHT22;6894;52.196;9.904;2023-04-09T06:55:05;3.40;99.90
13642;DHT22;6894;52.196;9.904;2023-04-09T06:57:32;3.50;99.90
13642;DHT22;6894;52.196;9.904;2023-04-09T06:59:59;3.70;99.90
13642;DHT22;6894;52.196;9.904;2023-04-09T07:02:25;3.80;99.90
13642;DHT22;6894;52.196;9.904;2023-04-09T07:04:52;3.90;99.90
13642;DHT22;6894;52.196;9.904;2023-04-09T07:07:19;3.90;99.90
13642;DHT22;6894;52.196;9.904;2023-04-09T07:09:48;4.00;99.90
13642;DHT22;6894;52.196;9.904;2023-04-09T07:12:25;4.10;99.90
13642;DHT22;6894;52.196;9.904;2023-04-09T07:14:52;4.30;99.90
13642;DHT22;6894;52.196;9.904;2023-04-09T07:17:18;4.30;99.90
13642;DHT22;6894;52.196;9.904;2023-04-09T07:19:45;4.40;99.90
13642;DHT22;6894;52.196;9.904;2023-04-09T07:22:12;4.40;99.90
13642;DHT22;6894;52.196;9.904;2023-04-09T07:24:38;4.40;99.90
13642;DHT22;6894;52.196;9.904;2023-04-09T07:27:07;4.50;99.90
13642;DHT22;6894;52.196;9.904;2023-04-09T07:29:34;4.70;99.90
13642;DHT22;6894;52.196;9.904;2023-04-09T07:32:01;4.70;99.90
13642;DHT22;6894;52.196;9.904;2023-04-09T07:34:28;4.80;99.90
13642;DHT22;6894;52.196;9.904;2023-04-09T07:36:55;5.00;99.90
13642;DHT22;6894;52.196;9.904;2023-04-09T07:39:21;5.10;99.90
13642;DHT22;6894;52.196;9.904;2023-04-09T07:41:48;5.30;99.90
13642;DHT22;6894;52.196;9.904;2023-04-09T07:44:16;5.50;99.90
13642;DHT22;6894;52.196;9.904;2023-04-09T07:46:43;5.70;99.90
13642;DHT22;6894;52.196;9.904;2023-04-09T07:49:10;5.80;99.90
13642;DHT22;6894;52.196;9.904;2023-04-09T07:51:37;5.90;99.90
13642;DHT22;6894;52.196;9.904;2023-04-09T07:54:03;6.00;99.90
13642;DHT22;6894;52.196;9.904;2023-04-09T07:56:30;6.00;99.90
13642;DHT22;6894;52.196;9.904;2023-04-09T07:58:57;6.10;99.90
13642;DHT22;6894;52.196;9.904;2023-04-09T08:01:25;6.30;99.90
13642;DHT22;6894;52.196;9.904;2023-04-09T08:03:52;6.40;99.90
13642;DHT22;6894;52.196;9.904;2023-04-09T08:06:18;6.50;99.90
13642;DHT22;6894;52.196;9.904;2023-04-09T08:08:45;6.70;99.90
13642;DHT22;6894;52.196;9.904;2023-04-09T08:11:12;6.60;99.90
13642;DHT22;6894;52.196;9.904;2023-04-09T08:13:39;6.70;99.90
13642;DHT22;6894;52.196;9.904;2023-04-09T08:16:06;6.70;99.90
13642;DHT22;6894;52.196;9.904;2023-04-09T08:18:34;6.80;99.90
13642;DHT22;6894;52.196;9.904;2023-04-09T08:21:03;6.90;99.90
13642;DHT22;6894;52.196;9.904;2023-04-09T08:23:30;7.00;99.90
13642;DHT22;6894;52.196;9.904;2023-04-09T08:25:57;7.10;99.90
13642;DHT22;6894;52.196;9.904;2023-04-09T08:28:23;7.20;99.90
13642;DHT22;6894;52.196;9.904;2023-04-09T08:30:50;7.30;99.90
13642;DHT22;6894;52.196;9.904;2023-04-09T08:33:17;7.40;99.90
13642;DHT22;6894;52.196;9.904;2023-04-09T08:35:46;7.60;99.90
13642;DHT22;6894;52.196;9.904;2023-04-09T08:38:13;7.60;99.90
13642;DHT22;6894;52.196;9.904;2023-04-09T08:40:41;7.70;99.90
13642;DHT22;6894;52.196;9.904;2023-04-09T08:43:09;7.70;99.90
13642;DHT22;6894;52.196;9.904;2023-04-09T08:45:39;7.70;99.90
13642;DHT22;6894;52.196;9.904;2023-04-09T08:48:08;7.80;99.90
13642;DHT22;6894;52.196;9.904;2023-04-09T08:50:35;7.80;99.90
13642;DHT22;6894;52.196;9.904;2023-04-09T08:53:05;7.90;99.90
13642;DHT22;6894;52.196;9.904;2023-04-09T08:55:32;8.00;99.90
13642;DHT22;6894;52.196;9.904;2023-04-09T08:58:00;8.00;99.90
13642;DHT22;6894;52.196;9.904;2023-04-09T09:00:29;8.00;99.90
13642;DHT22;6894;52.196;9.904;2023-04-09T09:03:04;8.10;99.90
13642;DHT22;6894;52.196;9.904;2023-04-09T09:05:36;8.20;99.90
13642;DHT22;6894;52.196;9.904;2023-04-09T09:08:06;8.40;99.90
13642;DHT22;6894;52.196;9.904;2023-04-09T09:10:37;8.50;99.90
13642;DHT22;6894;52.196;9.904;2023-04-09T09:13:16;8.50;99.90
13642;DHT22;6894;52.196;9.904;2023-04-09T09:15:44;8.50;99.90
13642;DHT22;6894;52.196;9.904;2023-04-09T09:18:12;8.70;99.90
13642;DHT22;6894;52.196;9.904;2023-04-09T09:20:39;8.80;99.90
13642;DHT22;6894;52.196;9.904;2023-04-09T09:23:07;8.80;99.90
13642;DHT22;6894;52.196;9.904;2023-04-09T09:25:37;8.80;99.90
13642;DHT22;6894;52.196;9.904;2023-04-09T09:28:08;8.80;99.90
13642;DHT22;6894;52.196;9.904;2023-04-09T09:30:36;8.90;99.90
13642;DHT22;6894;52.196;9.904;2023-04-09T09:33:05;8.90;99.90
13642;DHT22;6894;52.196;9.904;2023-04-09T09:35:48;8.80;99.90
13642;DHT22;6894;52.196;9.904;2023-04-09T09:38:16;8.90;99.90
13642;DHT22;6894;52.196;9.904;2023-04-09T09:40:44;9.00;99.90
13642;DHT22;6894;52.196;9.904;2023-04-09T09:43:11;9.00;99.90
13642;DHT22;6894;52.196;9.904;2023-04-09T09:45:39;9.00;99.90
13642;DHT22;6894;52.196;9.904;2023-04-09T09:48:09;9.10;99.90
13642;DHT22;6894;52.196;9.904;2023-04-09T09:50:37;9.10;99.90
13642;DHT22;6894;52.196;9.904;2023-04-09T09:53:07;9.10;99.90
13642;DHT22;6894;52.196;9.904;2023-04-09T09:55:38;9.10;99.90
13642;DHT22;6894;52.196;9.904;2023-04-09T09:58:09;9.20;99.90
13642;DHT22;6894;52.196;9.904;2023-04-09T10:00:39;9.20;99.90
13642;DHT22;6894;52.196;9.904;2023-04-09T10:03:13;9.20;99.90
13642;DHT22;6894;52.196;9.904;2023-04-09T10:05:42;9.30;99.90
13642;DHT22;6894;52.196;9.904;2023-04-09T10:08:10;9.20;99.90
13642;DHT22;6894;52.196;9.904;2023-04-09T10:10:40;9.30;99.90
13642;DHT22;6894;52.196;9.904;2023-04-09T10:13:14;9.40;99.90
13642;DHT22;6894;52.196;9.904;2023-04-09T10:15:42;9.50;99.90
13642;DHT22;6894;52.196;9.904;2023-04-09T10:18:09;9.40;99.90
13642;DHT22;6894;52.196;9.904;2023-04-09T10:20:40;9.50;99.90
13642;DHT22;6894;52.196;9.904;2023-04-09T10:23:18;9.60;99.90
13642;DHT22;6894;52.196;9.904;2023-04-09T10:25:48;9.90;99.90
13642;DHT22;6894;52.196;9.904;2023-04-09T10:28:16;10.20;99.90
13642;DHT22;6894;52.196;9.904;2023-04-09T10:30:43;10.30;99.90
13642;DHT22;6894;52.196;9.904;2023-04-09T10:33:12;10.30;99.90
13642;DHT22;6894;52.196;9.904;2023-04-09T10:35:39;10.30;99.90
13642;DHT22;6894;52.196;9.904;2023-04-09T10:38:07;10.40;99.90
13642;DHT22;6894;52.196;9.904;2023-04-09T10:40:34;10.50;99.90
13642;DHT22;6894;52.196;9.904;2023-04-09T10:43:04;10.60;99.90
13642;DHT22;6894;52.196;9.904;2023-04-09T10:45:39;11.10;99.90
13642;DHT22;6894;52.196;9.904;2023-04-09T10:48:10;11.20;99.90
13642;DHT22;6894;52.196;9.904;2023-04-09T10:50:39;11.40;99.90
13642;DHT22;6894;52.196;9.904;2023-04-09T10:53:20;11.80;99.90
13642;DHT22;6894;52.196;9.904;2023-04-09T10:55:48;12.10;99.90
13642;DHT22;6894;52.196;9.904;2023-04-09T10:58:17;12.20;99.90
13642;DHT22;6894;52.196;9.904;2023-04-09T11:00:45;11.90;12.90
13642;DHT22;6894;52.196;9.904;2023-04-09T11:03:19;11.80;37.10
13642;DHT22;6894;52.196;9.904;2023-04-09T11:05:50;11.60;99.90
13642;DHT22;6894;52.196;9.904;2023-04-09T11:08:17;11.60;99.90
13642;DHT22;6894;52.196;9.904;2023-04-09T11:10:46;11.70;99.90
13642;DHT22;6894;52.196;9.904;2023-04-09T11:13:14;11.80;99.90
13642;DHT22;6894;52.196;9.904;2023-04-09T11:15:43;11.70;99.90
13642;DHT22;6894;52.196;9.904;2023-04-09T11:18:13;11.80;99.90
13642;DHT22;6894;52.196;9.904;2023-04-09T11:20:40;11.70;99.90
13642;DHT22;6894;52.196;9.904;2023-04-09T11:23:07;11.50;99.90
13642;DHT22;6894;52.196;9.904;2023-04-09T11:25:34;11.50;99.90
13642;DHT22;6894;52.196;9.904;2023-04-09T11:28:02;11.50;99.90
13642;DHT22;6894;52.196;9.904;2023-04-09T11:30:29;11.50;99.90
13642;DHT22;6894;52.196;9.904;2023-04-09T11:33:00;11.60;99.90
13642;DHT22;6894;52.196;9.904;2023-04-09T11:35:27;11.70;99.90
13642;DHT22;6894;52.196;9.904;2023-04-09T11:37:54;11.60;99.90
13642;DHT22;6894;52.196;9.904;2023-04-09T11:40:22;11.40;99.90
13642;DHT22;6894;52.196;9.904;2023-04-09T11:42:51;11.30;99.90
13642;DHT22;6894;52.196;9.904;2023-04-09T11:45:19;11.40;99.90
13642;DHT22;6894;52.196;9.904;2023-04-09T11:47:46;11.10;99.90
13642;DHT22;6894;52.196;9.904;2023-04-09T11:50:15;11.20;99.90
13642;DHT22;6894;52.196;9.904;2023-04-09T11:52:43;11.00;99.90
13642;DHT22;6894;52.196;9.904;2023-04-09T11:55:11;11.10;99.90
13642;DHT22;6894;52.196;9.904;2023-04-09T11:57:39;11.00;99.90
13642;DHT22;6894;52.196;9.904;2023-04-09T12:00:09;10.80;99.90
13642;DHT22;6894;52.196;9.904;2023-04-09T12:02:38;10.70;99.90
13642;DHT22;6894;52.196;9.904;2023-04-09T12:05:10;10.60;99.90
13642;DHT22;6894;52.196;9.904;2023-04-09T12:07:39;10.60;99.90
13642;DHT22;6894;52.196;9.904;2023-04-09T12:10:11;10.70;99.90
13642;DHT22;6894;52.196;9.904;2023-04-09T12:12:39;10.80;99.90
13642;DHT22;6894;52.196;9.904;2023-04-09T12:15:10;10.90;99.90
13642;DHT22;6894;52.196;9.904;2023-04-09T12:17:37;11.00;99.90
13642;DHT22;6894;52.196;9.904;2023-04-09T12:20:05;11.20;99.90
13642;DHT22;6894;52.196;9.904;2023-04-09T12:22:34;11.30;99.90
13642;DHT22;6894;52.196;9.904;2023-04-09T12:25:07;11.50;99.90
13642;DHT22;6894;52.196;9.904;2023-04-09T12:27:34;11.70;99.90
13642;DHT22;6894;52.196;9.904;2023-04-09T12:30:01;11.80;99.90
13642;DHT22;6894;52.196;9.904;2023-04-09T12:32:27;11.70;99.90
13642;DHT22;6894;52.196;9.904;2023-04-09T12:34:54;11.70;99.90
13642;DHT22;6894;52.196;9.904;2023-04-09T12:37:21;11.70;99.90
13642;DHT22;6894;52.196;9.904;2023-04-09T12:39:48;11.80;99.90
13642;DHT22;6894;52.196;9.904;2023-04-09T12:42:16;11.80;99.90
13642;DHT22;6894;52.196;9.904;2023-04-09T12:44:43;11.70;99.90
13642;DHT22;6894;52.196;9.904;2023-04-09T12:47:09;11.70;99.90
13642;DHT22;6894;52.196;9.904;2023-04-09T12:49:36;11.80;99.90
13642;DHT22;6894;52.196;9.904;2023-04-09T12:52:03;12.00;99.90
13642;DHT22;6894;52.196;9.904;2023-04-09T12:54:30;12.20;99.90
13642;DHT22;6894;52.196;9.904;2023-04-09T12:56:57;12.50;99.90
13642;DHT22;6894;52.196;9.904;2023-04-09T12:59:25;13.10;99.90
13642;DHT22;6894;52.196;9.904;2023-04-09T13:01:52;13.70;99.90
13642;DHT22;6894;52.196;9.904;2023-04-09T13:04:18;14.50;99.90
13642;DHT22;6894;52.196;9.904;2023-04-09T13:06:45;15.10;99.90
13642;DHT22;6894;52.196;9.904;2023-04-09T13:09:12;15.50;99.90
13642;DHT22;6894;52.196;9.904;2023-04-09T13:11:39;15.80;99.90
13642;DHT22;6894;52.196;9.904;2023-04-09T13:14:06;15.90;1.00
13642;DHT22;6894;52.196;9.904;2023-04-09T13:16:39;15.50;99.90
13642;DHT22;6894;52.196;9.904;2023-04-09T13:19:07;15.50;99.90
13642;DHT22;6894;52.196;9.904;2023-04-09T13:21:34;15.60;99.90
13642;DHT22;6894;52.196;9.904;2023-04-09T13:24:02;16.00;99.90
13642;DHT22;6894;52.196;9.904;2023-04-09T13:26:29;15.80;99.90
13642;DHT22;6894;52.196;9.904;2023-04-09T13:28:56;15.40;99.90
13642;DHT22;6894;52.196;9.904;2023-04-09T13:31:23;15.30;99.90
13642;DHT22;6894;52.196;9.904;2023-04-09T13:33:51;15.40;99.90
13642;DHT22;6894;52.196;9.904;2023-04-09T13:36:18;15.80;99.90
13642;DHT22;6894;52.196;9.904;2023-04-09T13:38:44;15.60;99.90
13642;DHT22;6894;52.196;9.904;2023-04-09T13:41:11;15.30;99.90
13642;DHT22;6894;52.196;9.904;2023-04-09T13:43:39;15.10;99.90
13642;DHT22;6894;52.196;9.904;2023-04-09T13:46:06;14.90;99.90
13642;DHT22;6894;52.196;9.904;2023-04-09T13:48:33;14.80;99.90
13642;DHT22;6894;52.196;9.904;2023-04-09T13:51:01;15.00;99.90
13642;DHT22;6894;52.196;9.904;2023-04-09T13:53:28;15.40;99.90
13642;DHT22;6894;52.196;9.904;2023-04-09T13:55:55;15.60;99.90
13642;DHT22;6894;52.196;9.904;2023-04-09T13:58:21;15.90;99.90
13642;DHT22;6894;52.196;9.904;2023-04-09T14:00:48;16.00;99.90
13642;DHT22;6894;52.196;9.904;2023-04-09T14:03:15;16.00;99.90
13642;DHT22;6894;52.196;9.904;2023-04-09T14:05:42;15.90;99.90
13642;DHT22;6894;52.196;9.904;2023-04-09T14:08:10;15.90;99.90
13642;DHT22;6894;52.196;9.904;2023-04-09T14:10:37;15.80;99.90
13642;DHT22;6894;52.196;9.904;2023-04-09T14:13:05;15.30;99.90
13642;DHT22;6894;52.196;9.904;2023-04-09T14:15:35;14.70;99.90
13642;DHT22;6894;52.196;9.904;2023-04-09T14:18:01;14.70;99.90
13642;DHT22;6894;52.196;9.904;2023-04-09T14:20:28;14.70;99.90
13642;DHT22;6894;52.196;9.904;2023-04-09T14:22:55;14.40;99.90
13642;DHT22;6894;52.196;9.904;2023-04-09T14:25:23;14.50;99.90
13642;DHT22;6894;52.196;9.904;2023-04-09T14:27:50;14.60;99.90
13642;DHT22;6894;52.196;9.904;2023-04-09T14:30:17;14.80;99.90
13642;DHT22;6894;52.196;9.904;2023-04-09T14:32:44;15.10;99.90
13642;DHT22;6894;52.196;9.904;2023-04-09T14:35:10;15.40;99.90
13642;DHT22;6894;52.196;9.904;2023-04-09T14:37:37;15.50;99.90
13642;DHT22;6894;52.196;9.904;2023-04-09T14:40:06;15.40;99.90
13642;DHT22;6894;52.196;9.904;2023-04-09T14:42:34;14.80;99.90
13642;DHT22;6894;52.196;9.904;2023-04-09T14:45:01;14.90;99.90
13642;DHT22;6894;52.196;9.904;2023-04-09T14:47:28;14.90;99.90
13642;DHT22;6894;52.196;9.904;2023-04-09T14:49:55;14.80;99.90
13642;DHT22;6894;52.196;9.904;2023-04-09T14:52:22;14.90;99.90
13642;DHT22;6894;52.196;9.904;2023-04-09T14:54:48;15.20;99.90
13642;DHT22;6894;52.196;9.904;2023-04-09T14:57:15;15.50;99.90
13642;DHT22;6894;52.196;9.904;2023-04-09T14:59:43;15.40;99.90
13642;DHT22;6894;52.196;9.904;2023-04-09T15:02:10;15.70;99.90
13642;DHT22;6894;52.196;9.904;2023-04-09T15:04:37;15.70;99.90
13642;DHT22;6894;52.196;9.904;2023-04-09T15:07:04;16.10;99.90
13642;DHT22;6894;52.196;9.904;2023-04-09T15:09:31;16.40;99.90
13642;DHT22;6894;52.196;9.904;2023-04-09T15:11:58;16.80;99.90
13642;DHT22;6894;52.196;9.904;2023-04-09T15:14:27;17.20;99.90
13642;DHT22;6894;52.196;9.904;2023-04-09T15:16:56;17.40;99.90
13642;DHT22;6894;52.196;9.904;2023-04-09T15:19:23;17.50;99.90
13642;DHT22;6894;52.196;9.904;2023-04-09T15:21:49;17.70;99.90
13642;DHT22;6894;52.196;9.904;2023-04-09T15:24:16;17.60;99.90
13642;DHT22;6894;52.196;9.904;2023-04-09T15:26:43;17.50;99.90
13642;DHT22;6894;52.196;9.904;2023-04-09T15:29:10;17.40;99.90
13642;DHT22;6894;52.196;9.904;2023-04-09T15:31:37;17.50;99.90
13642;DHT22;6894;52.196;9.904;2023-04-09T15:34:05;17.60;99.90
13642;DHT22;6894;52.196;9.904;2023-04-09T15:36:32;17.50;99.90
13642;DHT22;6894;52.196;9.904;2023-04-09T15:38:58;17.50;99.90
13642;DHT22;6894;52.196;9.904;2023-04-09T15:41:25;17.60;99.90
13642;DHT22;6894;52.196;9.904;2023-04-09T15:43:52;17.60;99.90
13642;DHT22;6894;52.196;9.904;2023-04-09T15:46:18;17.50;99.90
13642;DHT22;6894;52.196;9.904;2023-04-09T15:48:45;17.60;99.90
13642;DHT22;6894;52.196;9.904;2023-04-09T15:51:13;17.60;99.90
13642;DHT22;6894;52.196;9.904;2023-04-09T15:53:41;17.40;99.90
13642;DHT22;6894;52.196;9.904;2023-04-09T15:56:10;17.10;99.90
13642;DHT22;6894;52.196;9.904;2023-04-09T15:58:39;16.70;99.90
13642;DHT22;6894;52.196;9.904;2023-04-09T16:01:06;16.60;99.90